sensor_id;sensor_type;location;lat;lon;timestamp;P1;durP1;ratioP1;P2;durP2;ratioP2
5022;SDS011;2530;47.990;7.866;2023-05-18T00:01:48;4.38;;;3.65;;
5022;SDS011;2530;47.990;7.866;2023-05-18T00:04:13;6.25;;;3.67;;
5022;SDS011;2530;47.990;7.866;2023-05-18T00:06:41;4.40;;;3.65;;
5022;SDS011;2530;47.990;7.866;2023-05-18T00:09:06;5.70;;;3.30;;
5022;SDS011;2530;47.990;7.866;2023-05-18T00:11:32;5.07;;;3.50;;
5022;SDS011;2530;47.990;7.866;2023-05-18T00:13:58;4.93;;;3.90;;
5022;SDS011;2530;47.990;7.866;2023-05-18T00:16:24;6.38;;;3.80;;
5022;SDS011;2530;47.990;7.866;2023-05-18T00:18:49;5.72;;;3.80;;
5022;SDS011;2530;47.990;7.866;2023-05-18T00:21:18;5.18;;;3.75;;
5022;SDS011;2530;47.990;7.866;2023-05-18T00:23:44;4.88;;;3.60;;
5022;SDS011;2530;47.990;7.866;2023-05-18T00:26:13;4.32;;;3.60;;
5022;SDS011;2530;47.990;7.866;2023-05-18T00:28:39;6.10;;;3.90;;
5022;SDS011;2530;47.990;7.866;2023-05-18T00:31:05;4.18;;;3.78;;
5022;SDS011;2530;47.990;7.866;2023-05-18T00:33:31;4.15;;;3.45;;
5022;SDS011;2530;47.990;7.866;2023-05-18T00:35:56;5.70;;;4.05;;
5022;SDS011;2530;47.990;7.866;2023-05-18T00:38:23;6.50;;;4.23;;
5022;SDS011;2530;47.990;7.866;2023-05-18T00:40:48;4.68;;;3.58;;
5022;SDS011;2530;47.990;7.866;2023-05-18T00:43:14;5.20;;;3.60;;
5022;SDS011;2530;47.990;7.866;2023-05-18T00:45:40;4.13;;;3.70;;
5022;SDS011;2530;47.990;7.866;2023-05-18T00:48:05;7.00;;;4.50;;
5022;SDS011;2530;47.990;7.866;2023-05-18T00:50:31;5.67;;;4.03;;
5022;SDS011;2530;47.990;7.866;2023-05-18T00:52:56;4.20;;;3.67;;
5022;SDS011;2530;47.990;7.866;2023-05-18T00:55:22;4.90;;;4.00;;
5022;SDS011;2530;47.990;7.866;2023-05-18T00:57:48;7.70;;;5.93;;
5022;SDS011;2530;47.990;7.866;2023-05-18T01:00:14;5.80;;;4.15;;
5022;SDS011;2530;47.990;7.866;2023-05-18T01:02:40;6.85;;;4.10;;
5022;SDS011;2530;47.990;7.866;2023-05-18T01:05:09;6.07;;;3.70;;
5022;SDS011;2530;47.990;7.866;2023-05-18T01:07:36;4.93;;;3.85;;
5022;SDS011;2530;47.990;7.866;2023-05-18T01:10:03;5.35;;;4.35;;
5022;SDS011;2530;47.990;7.866;2023-05-18T01:15:31;5.28;;;4.20;;
5022;SDS011;2530;47.990;7.866;2023-05-18T01:18:13;6.00;;;4.05;;
5022;SDS011;2530;47.990;7.866;2023-05-18T01:24:14;5.43;;;4.05;;
5022;SDS011;2530;47.990;7.866;2023-05-18T01:26:23;5.68;;;4.20;;
5022;SDS011;2530;47.990;7.866;2023-05-18T01:28:57;4.57;;;3.78;;
5022;SDS011;2530;47.990;7.866;2023-05-18T01:31:25;5.88;;;4.70;;
5022;SDS011;2530;47.990;7.866;2023-05-18T01:33:51;4.60;;;4.20;;
5022;SDS011;2530;47.990;7.866;2023-05-18T01:36:17;6.70;;;4.10;;
5022;SDS011;2530;47.990;7.866;2023-05-18T01:38:42;5.27;;;4.07;;
5022;SDS011;2530;47.990;7.866;2023-05-18T01:41:25;5.03;;;4.07;;
5022;SDS011;2530;47.990;7.866;2023-05-18T01:47:13;5.13;;;4.38;;
5022;SDS011;2530;47.990;7.866;2023-05-18T01:49:55;4.25;;;3.60;;
5022;SDS011;2530;47.990;7.866;2023-05-18T01:52:35;5.17;;;4.40;;
5022;SDS011;2530;47.990;7.866;2023-05-18T01:55:02;7.78;;;4.90;;
5022;SDS011;2530;47.990;7.866;2023-05-18T01:57:29;4.45;;;3.90;;
5022;SDS011;2530;47.990;7.866;2023-05-18T01:59:59;6.22;;;4.50;;
5022;SDS011;2530;47.990;7.866;2023-05-18T02:02:26;6.00;;;4.30;;
5022;SDS011;2530;47.990;7.866;2023-05-18T02:04:52;4.78;;;4.00;;
5022;SDS011;2530;47.990;7.866;2023-05-18T02:07:18;6.22;;;4.10;;
5022;SDS011;2530;47.990;7.866;2023-05-18T02:09:43;6.82;;;4.60;;
5022;SDS011;2530;47.990;7.866;2023-05-18T02:12:09;7.65;;;4.93;;
5022;SDS011;2530;47.990;7.866;2023-05-18T02:14:35;5.85;;;4.57;;
5022;SDS011;2530;47.990;7.866;2023-05-18T02:17:01;7.13;;;4.73;;
5022;SDS011;2530;47.990;7.866;2023-05-18T02:19:27;7.30;;;4.47;;
5022;SDS011;2530;47.990;7.866;2023-05-18T02:21:54;5.40;;;4.20;;
5022;SDS011;2530;47.990;7.866;2023-05-18T02:24:20;6.68;;;3.90;;
5022;SDS011;2530;47.990;7.866;2023-05-18T02:26:47;6.27;;;3.80;;
5022;SDS011;2530;47.990;7.866;2023-05-18T02:29:12;6.03;;;4.10;;
5022;SDS011;2530;47.990;7.866;2023-05-18T02:31:38;6.32;;;4.53;;
5022;SDS011;2530;47.990;7.866;2023-05-18T02:34:04;4.78;;;4.30;;
5022;SDS011;2530;47.990;7.866;2023-05-18T02:36:30;7.87;;;4.60;;
5022;SDS011;2530;47.990;7.866;2023-05-18T02:39:01;7.25;;;5.20;;
5022;SDS011;2530;47.990;7.866;2023-05-18T02:41:28;5.68;;;4.80;;
5022;SDS011;2530;47.990;7.866;2023-05-18T02:43:54;7.20;;;4.63;;
5022;SDS011;2530;47.990;7.866;2023-05-18T02:46:19;7.40;;;4.97;;
5022;SDS011;2530;47.990;7.866;2023-05-18T02:48:45;6.20;;;4.30;;
5022;SDS011;2530;47.990;7.866;2023-05-18T02:51:11;7.10;;;5.20;;
5022;SDS011;2530;47.990;7.866;2023-05-18T02:53:37;6.28;;;4.75;;
5022;SDS011;2530;47.990;7.866;2023-05-18T02:56:03;5.63;;;5.10;;
5022;SDS011;2530;47.990;7.866;2023-05-18T02:58:29;7.17;;;4.50;;
5022;SDS011;2530;47.990;7.866;2023-05-18T03:00:55;6.60;;;4.80;;
5022;SDS011;2530;47.990;7.866;2023-05-18T03:03:20;5.97;;;4.60;;
5022;SDS011;2530;47.990;7.866;2023-05-18T03:05:47;6.65;;;4.13;;
5022;SDS011;2530;47.990;7.866;2023-05-18T03:08:16;6.43;;;4.63;;
5022;SDS011;2530;47.990;7.866;2023-05-18T03:10:43;5.05;;;4.55;;
5022;SDS011;2530;47.990;7.866;2023-05-18T03:13:09;5.28;;;4.60;;
5022;SDS011;2530;47.990;7.866;2023-05-18T03:15:35;5.00;;;4.50;;
5022;SDS011;2530;47.990;7.866;2023-05-18T03:18:01;7.73;;;4.60;;
5022;SDS011;2530;47.990;7.866;2023-05-18T03:20:27;5.13;;;4.47;;
5022;SDS011;2530;47.990;7.866;2023-05-18T03:22:55;6.90;;;4.50;;
5022;SDS011;2530;47.990;7.866;2023-05-18T03:25:21;5.43;;;4.10;;
5022;SDS011;2530;47.990;7.866;2023-05-18T03:27:50;4.93;;;4.20;;
5022;SDS011;2530;47.990;7.866;2023-05-18T03:30:16;4.70;;;4.22;;
5022;SDS011;2530;47.990;7.866;2023-05-18T03:32:43;6.75;;;4.50;;
5022;SDS011;2530;47.990;7.866;2023-05-18T03:35:09;7.55;;;4.80;;
5022;SDS011;2530;47.990;7.866;2023-05-18T03:37:34;6.50;;;4.30;;
5022;SDS011;2530;47.990;7.866;2023-05-18T03:40:07;5.97;;;4.40;;
5022;SDS011;2530;47.990;7.866;2023-05-18T03:42:34;5.03;;;4.27;;
5022;SDS011;2530;47.990;7.866;2023-05-18T03:45:00;5.80;;;4.30;;
5022;SDS011;2530;47.990;7.866;2023-05-18T03:47:26;4.47;;;4.07;;
5022;SDS011;2530;47.990;7.866;2023-05-18T03:49:51;8.00;;;4.30;;
5022;SDS011;2530;47.990;7.866;2023-05-18T03:52:17;7.60;;;4.63;;
5022;SDS011;2530;47.990;7.866;2023-05-18T03:54:46;5.27;;;4.27;;
5022;SDS011;2530;47.990;7.866;2023-05-18T03:57:15;5.50;;;4.30;;
5022;SDS011;2530;47.990;7.866;2023-05-18T03:59:42;5.13;;;4.43;;
5022;SDS011;2530;47.990;7.866;2023-05-18T04:02:08;5.78;;;4.30;;
5022;SDS011;2530;47.990;7.866;2023-05-18T04:04:35;5.03;;;4.20;;
5022;SDS011;2530;47.990;7.866;2023-05-18T04:07:00;6.90;;;4.90;;
5022;SDS011;2530;47.990;7.866;2023-05-18T04:09:29;6.33;;;4.40;;
5022;SDS011;2530;47.990;7.866;2023-05-18T04:11:55;6.20;;;4.10;;
5022;SDS011;2530;47.990;7.866;2023-05-18T04:14:21;4.75;;;4.35;;
5022;SDS011;2530;47.990;7.866;2023-05-18T04:16:48;5.03;;;4.20;;
5022;SDS011;2530;47.990;7.866;2023-05-18T04:19:15;7.05;;;5.20;;
5022;SDS011;2530;47.990;7.866;2023-05-18T04:21:42;5.35;;;4.65;;
5022;SDS011;2530;47.990;7.866;2023-05-18T04:24:11;6.10;;;4.30;;
5022;SDS011;2530;47.990;7.866;2023-05-18T04:26:38;5.30;;;4.80;;
5022;SDS011;2530;47.990;7.866;2023-05-18T04:29:05;5.78;;;4.65;;
5022;SDS011;2530;47.990;7.866;2023-05-18T04:31:31;6.50;;;4.67;;
5022;SDS011;2530;47.990;7.866;2023-05-18T04:33:58;6.13;;;4.70;;
5022;SDS011;2530;47.990;7.866;2023-05-18T04:36:24;5.57;;;4.70;;
5022;SDS011;2530;47.990;7.866;2023-05-18T04:38:55;6.55;;;4.57;;
5022;SDS011;2530;47.990;7.866;2023-05-18T04:41:22;6.60;;;4.80;;
5022;SDS011;2530;47.990;7.866;2023-05-18T04:43:48;5.70;;;4.90;;
5022;SDS011;2530;47.990;7.866;2023-05-18T04:46:14;5.50;;;4.90;;
5022;SDS011;2530;47.990;7.866;2023-05-18T04:48:40;6.32;;;4.85;;
5022;SDS011;2530;47.990;7.866;2023-05-18T04:51:06;6.67;;;5.13;;
5022;SDS011;2530;47.990;7.866;2023-05-18T04:53:32;5.82;;;4.47;;
5022;SDS011;2530;47.990;7.866;2023-05-18T04:55:58;5.57;;;4.20;;
5022;SDS011;2530;47.990;7.866;2023-05-18T04:58:24;4.90;;;4.40;;
5022;SDS011;2530;47.990;7.866;2023-05-18T05:00:51;5.30;;;4.80;;
5022;SDS011;2530;47.990;7.866;2023-05-18T05:03:17;5.82;;;4.60;;
5022;SDS011;2530;47.990;7.866;2023-05-18T05:05:43;5.50;;;4.10;;
5022;SDS011;2530;47.990;7.866;2023-05-18T05:08:08;4.78;;;4.25;;
5022;SDS011;2530;47.990;7.866;2023-05-18T05:10:33;7.40;;;4.60;;
5022;SDS011;2530;47.990;7.866;2023-05-18T05:12:59;8.10;;;4.50;;
5022;SDS011;2530;47.990;7.866;2023-05-18T05:15:25;7.53;;;4.33;;
5022;SDS011;2530;47.990;7.866;2023-05-18T05:17:50;4.65;;;4.22;;
5022;SDS011;2530;47.990;7.866;2023-05-18T05:20:16;4.88;;;4.40;;
5022;SDS011;2530;47.990;7.866;2023-05-18T05:22:42;6.22;;;4.40;;
5022;SDS011;2530;47.990;7.866;2023-05-18T05:25:07;4.22;;;3.70;;
5022;SDS011;2530;47.990;7.866;2023-05-18T05:27:33;6.20;;;3.80;;
5022;SDS011;2530;47.990;7.866;2023-05-18T05:29:59;4.28;;;3.60;;
5022;SDS011;2530;47.990;7.866;2023-05-18T05:32:24;4.87;;;4.37;;
5022;SDS011;2530;47.990;7.866;2023-05-18T05:34:50;7.90;;;4.00;;
5022;SDS011;2530;47.990;7.866;2023-05-18T05:37:16;5.97;;;4.10;;
5022;SDS011;2530;47.990;7.866;2023-05-18T05:39:42;5.47;;;4.22;;
5022;SDS011;2530;47.990;7.866;2023-05-18T05:42:08;5.40;;;4.07;;
5022;SDS011;2530;47.990;7.866;2023-05-18T05:44:34;8.32;;;4.30;;
5022;SDS011;2530;47.990;7.866;2023-05-18T05:46:59;6.63;;;4.45;;
5022;SDS011;2530;47.990;7.866;2023-05-18T05:49:25;5.97;;;4.13;;
5022;SDS011;2530;47.990;7.866;2023-05-18T05:51:51;6.13;;;4.03;;
5022;SDS011;2530;47.990;7.866;2023-05-18T05:54:17;5.30;;;3.50;;
5022;SDS011;2530;47.990;7.866;2023-05-18T05:56:42;5.57;;;4.30;;
5022;SDS011;2530;47.990;7.866;2023-05-18T05:59:08;5.00;;;3.95;;
5022;SDS011;2530;47.990;7.866;2023-05-18T06:01:34;4.68;;;3.67;;
5022;SDS011;2530;47.990;7.866;2023-05-18T06:04:00;5.13;;;3.60;;
5022;SDS011;2530;47.990;7.866;2023-05-18T06:06:31;5.43;;;3.90;;
5022;SDS011;2530;47.990;7.866;2023-05-18T06:08:56;4.03;;;3.53;;
5022;SDS011;2530;47.990;7.866;2023-05-18T06:11:22;5.57;;;3.93;;
5022;SDS011;2530;47.990;7.866;2023-05-18T06:13:47;5.80;;;3.50;;
5022;SDS011;2530;47.990;7.866;2023-05-18T06:16:13;4.70;;;3.73;;
5022;SDS011;2530;47.990;7.866;2023-05-18T06:18:39;4.72;;;3.90;;
5022;SDS011;2530;47.990;7.866;2023-05-18T06:21:04;7.18;;;3.90;;
5022;SDS011;2530;47.990;7.866;2023-05-18T06:23:30;4.95;;;3.83;;
5022;SDS011;2530;47.990;7.866;2023-05-18T06:25:55;5.40;;;3.45;;
5022;SDS011;2530;47.990;7.866;2023-05-18T06:28:21;6.53;;;3.50;;
5022;SDS011;2530;47.990;7.866;2023-05-18T06:30:46;4.30;;;3.80;;
5022;SDS011;2530;47.990;7.866;2023-05-18T06:33:12;5.47;;;3.90;;
5022;SDS011;2530;47.990;7.866;2023-05-18T06:35:38;5.97;;;3.90;;
5022;SDS011;2530;47.990;7.866;2023-05-18T06:38:04;6.75;;;3.90;;
5022;SDS011;2530;47.990;7.866;2023-05-18T06:40:29;4.80;;;3.80;;
5022;SDS011;2530;47.990;7.866;2023-05-18T06:42:55;5.80;;;3.70;;
5022;SDS011;2530;47.990;7.866;2023-05-18T06:45:20;5.90;;;4.43;;
5022;SDS011;2530;47.990;7.866;2023-05-18T06:47:46;4.77;;;3.70;;
5022;SDS011;2530;47.990;7.866;2023-05-18T06:50:12;6.93;;;4.20;;
5022;SDS011;2530;47.990;7.866;2023-05-18T06:52:38;6.30;;;4.00;;
5022;SDS011;2530;47.990;7.866;2023-05-18T06:55:04;5.00;;;4.00;;
5022;SDS011;2530;47.990;7.866;2023-05-18T06:57:29;7.90;;;4.00;;
5022;SDS011;2530;47.990;7.866;2023-05-18T06:59:55;5.18;;;3.72;;
5022;SDS011;2530;47.990;7.866;2023-05-18T07:02:21;6.50;;;4.50;;
5022;SDS011;2530;47.990;7.866;2023-05-18T07:04:47;5.85;;;3.72;;
5022;SDS011;2530;47.990;7.866;2023-05-18T07:07:13;5.90;;;4.20;;
5022;SDS011;2530;47.990;7.866;2023-05-18T07:09:40;6.10;;;3.78;;
5022;SDS011;2530;47.990;7.866;2023-05-18T07:12:07;4.10;;;3.70;;
5022;SDS011;2530;47.990;7.866;2023-05-18T07:14:33;7.65;;;4.05;;
5022;SDS011;2530;47.990;7.866;2023-05-18T07:16:59;5.45;;;3.70;;
5022;SDS011;2530;47.990;7.866;2023-05-18T07:19:24;6.13;;;3.78;;
5022;SDS011;2530;47.990;7.866;2023-05-18T07:21:50;5.63;;;4.30;;
5022;SDS011;2530;47.990;7.866;2023-05-18T07:24:15;8.77;;;4.37;;
5022;SDS011;2530;47.990;7.866;2023-05-18T07:26:41;5.17;;;4.00;;
5022;SDS011;2530;47.990;7.866;2023-05-18T07:29:10;5.37;;;4.20;;
5022;SDS011;2530;47.990;7.866;2023-05-18T07:31:45;6.13;;;4.50;;
5022;SDS011;2530;47.990;7.866;2023-05-18T07:34:25;6.13;;;4.28;;
5022;SDS011;2530;47.990;7.866;2023-05-18T07:36:51;7.20;;;4.05;;
5022;SDS011;2530;47.990;7.866;2023-05-18T07:39:23;5.17;;;4.40;;
5022;SDS011;2530;47.990;7.866;2023-05-18T07:41:52;5.93;;;4.25;;
5022;SDS011;2530;47.990;7.866;2023-05-18T07:44:19;5.03;;;4.00;;
5022;SDS011;2530;47.990;7.866;2023-05-18T07:46:45;6.40;;;3.95;;
5022;SDS011;2530;47.990;7.866;2023-05-18T07:49:11;5.45;;;4.00;;
5022;SDS011;2530;47.990;7.866;2023-05-18T07:51:37;5.63;;;4.03;;
5022;SDS011;2530;47.990;7.866;2023-05-18T07:54:03;4.78;;;3.88;;
5022;SDS011;2530;47.990;7.866;2023-05-18T07:56:29;5.40;;;4.20;;
5022;SDS011;2530;47.990;7.866;2023-05-18T07:58:55;6.10;;;3.58;;
5022;SDS011;2530;47.990;7.866;2023-05-18T08:01:21;4.77;;;3.80;;
5022;SDS011;2530;47.990;7.866;2023-05-18T08:03:51;5.07;;;3.60;;
5022;SDS011;2530;47.990;7.866;2023-05-18T08:06:17;4.90;;;3.70;;
5022;SDS011;2530;47.990;7.866;2023-05-18T08:08:42;7.10;;;3.83;;
5022;SDS011;2530;47.990;7.866;2023-05-18T08:11:08;6.50;;;3.78;;
5022;SDS011;2530;47.990;7.866;2023-05-18T08:13:34;5.18;;;3.60;;
5022;SDS011;2530;47.990;7.866;2023-05-18T08:16:00;5.07;;;3.78;;
5022;SDS011;2530;47.990;7.866;2023-05-18T08:18:25;5.25;;;3.85;;
5022;SDS011;2530;47.990;7.866;2023-05-18T08:20:51;4.47;;;3.38;;
5022;SDS011;2530;47.990;7.866;2023-05-18T08:23:17;4.80;;;3.20;;
5022;SDS011;2530;47.990;7.866;2023-05-18T08:25:43;4.00;;;3.20;;
5022;SDS011;2530;47.990;7.866;2023-05-18T08:28:09;7.40;;;4.07;;
5022;SDS011;2530;47.990;7.866;2023-05-18T08:30:35;4.60;;;3.60;;
5022;SDS011;2530;47.990;7.866;2023-05-18T08:33:01;6.90;;;3.72;;
5022;SDS011;2530;47.990;7.866;2023-05-18T08:35:27;6.88;;;3.50;;
5022;SDS011;2530;47.990;7.866;2023-05-18T08:37:53;4.43;;;3.20;;
5022;SDS011;2530;47.990;7.866;2023-05-18T08:40:19;4.25;;;3.30;;
5022;SDS011;2530;47.990;7.866;2023-05-18T08:45:31;4.67;;;3.57;;
5022;SDS011;2530;47.990;7.866;2023-05-18T08:48:07;4.50;;;3.55;;
5022;SDS011;2530;47.990;7.866;2023-05-18T08:50:35;3.97;;;3.10;;
5022;SDS011;2530;47.990;7.866;2023-05-18T08:53:05;4.20;;;3.80;;
5022;SDS011;2530;47.990;7.866;2023-05-18T08:55:31;3.60;;;3.00;;
5022;SDS011;2530;47.990;7.866;2023-05-18T08:58:01;5.40;;;3.50;;
5022;SDS011;2530;47.990;7.866;2023-05-18T09:00:28;4.75;;;3.47;;
5022;SDS011;2530;47.990;7.866;2023-05-18T09:02:54;4.68;;;3.20;;
5022;SDS011;2530;47.990;7.866;2023-05-18T09:05:20;3.83;;;3.22;;
5022;SDS011;2530;47.990;7.866;2023-05-18T09:07:48;3.95;;;3.10;;
5022;SDS011;2530;47.990;7.866;2023-05-18T09:10:15;5.13;;;3.50;;
5022;SDS011;2530;47.990;7.866;2023-05-18T09:12:42;6.53;;;3.28;;
5022;SDS011;2530;47.990;7.866;2023-05-18T09:15:10;4.68;;;2.90;;
5022;SDS011;2530;47.990;7.866;2023-05-18T09:17:37;5.20;;;3.30;;
5022;SDS011;2530;47.990;7.866;2023-05-18T09:20:03;3.78;;;2.97;;
5022;SDS011;2530;47.990;7.866;2023-05-18T09:22:31;6.18;;;3.63;;
5022;SDS011;2530;47.990;7.866;2023-05-18T09:24:57;3.50;;;2.90;;
5022;SDS011;2530;47.990;7.866;2023-05-18T09:27:23;5.00;;;3.00;;
5022;SDS011;2530;47.990;7.866;2023-05-18T09:29:50;3.67;;;3.20;;
5022;SDS011;2530;47.990;7.866;2023-05-18T09:32:18;5.60;;;3.20;;
5022;SDS011;2530;47.990;7.866;2023-05-18T09:34:43;3.83;;;3.47;;
5022;SDS011;2530;47.990;7.866;2023-05-18T09:37:10;4.57;;;3.03;;
5022;SDS011;2530;47.990;7.866;2023-05-18T09:39:35;5.75;;;3.60;;
5022;SDS011;2530;47.990;7.866;2023-05-18T09:42:01;4.90;;;2.70;;
5022;SDS011;2530;47.990;7.866;2023-05-18T09:44:31;4.50;;;2.97;;
5022;SDS011;2530;47.990;7.866;2023-05-18T09:46:58;3.92;;;3.08;;
5022;SDS011;2530;47.990;7.866;2023-05-18T09:49:24;4.38;;;2.83;;
5022;SDS011;2530;47.990;7.866;2023-05-18T09:51:52;5.22;;;2.95;;
5022;SDS011;2530;47.990;7.866;2023-05-18T09:54:18;4.70;;;2.97;;
5022;SDS011;2530;47.990;7.866;2023-05-18T09:56:43;4.82;;;3.05;;
5022;SDS011;2530;47.990;7.866;2023-05-18T09:59:11;3.42;;;2.70;;
5022;SDS011;2530;47.990;7.866;2023-05-18T10:04:37;5.10;;;2.60;;
5022;SDS011;2530;47.990;7.866;2023-05-18T10:07:11;4.30;;;3.00;;
5022;SDS011;2530;47.990;7.866;2023-05-18T10:09:38;4.90;;;3.00;;
5022;SDS011;2530;47.990;7.866;2023-05-18T10:12:15;3.10;;;2.80;;
5022;SDS011;2530;47.990;7.866;2023-05-18T10:14:42;5.85;;;3.05;;
5022;SDS011;2530;47.990;7.866;2023-05-18T10:17:12;3.70;;;2.80;;
5022;SDS011;2530;47.990;7.866;2023-05-18T10:19:39;5.47;;;2.83;;
5022;SDS011;2530;47.990;7.866;2023-05-18T10:22:08;6.50;;;3.00;;
5022;SDS011;2530;47.990;7.866;2023-05-18T10:24:37;4.70;;;3.20;;
5022;SDS011;2530;47.990;7.866;2023-05-18T10:27:06;4.40;;;2.80;;
5022;SDS011;2530;47.990;7.866;2023-05-18T10:29:33;3.45;;;2.70;;
5022;SDS011;2530;47.990;7.866;2023-05-18T10:32:01;4.10;;;2.90;;
5022;SDS011;2530;47.990;7.866;2023-05-18T10:34:28;3.97;;;2.65;;
5022;SDS011;2530;47.990;7.866;2023-05-18T10:36:55;5.43;;;3.28;;
5022;SDS011;2530;47.990;7.866;2023-05-18T10:39:23;4.25;;;2.60;;
5022;SDS011;2530;47.990;7.866;2023-05-18T10:41:50;3.30;;;2.60;;
5022;SDS011;2530;47.990;7.866;2023-05-18T10:44:20;3.25;;;2.72;;
5022;SDS011;2530;47.990;7.866;2023-05-18T10:46:47;3.58;;;2.47;;
5022;SDS011;2530;47.990;7.866;2023-05-18T10:49:15;4.45;;;2.55;;
5022;SDS011;2530;47.990;7.866;2023-05-18T10:51:41;3.70;;;2.90;;
5022;SDS011;2530;47.990;7.866;2023-05-18T10:54:12;3.85;;;2.80;;
5022;SDS011;2530;47.990;7.866;2023-05-18T10:56:45;2.80;;;2.33;;
5022;SDS011;2530;47.990;7.866;2023-05-18T10:59:14;4.40;;;2.97;;
5022;SDS011;2530;47.990;7.866;2023-05-18T11:01:42;3.90;;;2.70;;
5022;SDS011;2530;47.990;7.866;2023-05-18T11:04:09;4.45;;;2.90;;
5022;SDS011;2530;47.990;7.866;2023-05-18T11:06:35;3.25;;;2.70;;
5022;SDS011;2530;47.990;7.866;2023-05-18T11:09:01;4.10;;;2.90;;
5022;SDS011;2530;47.990;7.866;2023-05-18T11:11:27;3.90;;;2.47;;
5022;SDS011;2530;47.990;7.866;2023-05-18T11:13:57;3.38;;;2.78;;
5022;SDS011;2530;47.990;7.866;2023-05-18T11:16:33;2.80;;;2.60;;
5022;SDS011;2530;47.990;7.866;2023-05-18T11:19:04;3.97;;;3.00;;
5022;SDS011;2530;47.990;7.866;2023-05-18T11:26:48;6.65;;;2.90;;
5022;SDS011;2530;47.990;7.866;2023-05-18T11:29:23;3.95;;;2.80;;
5022;SDS011;2530;47.990;7.866;2023-05-18T11:32:24;5.95;;;3.42;;
5022;SDS011;2530;47.990;7.866;2023-05-18T11:34:56;5.18;;;2.60;;
5022;SDS011;2530;47.990;7.866;2023-05-18T11:40:10;4.88;;;3.40;;
5022;SDS011;2530;47.990;7.866;2023-05-18T11:42:37;4.55;;;2.50;;
5022;SDS011;2530;47.990;7.866;2023-05-18T11:45:06;4.50;;;3.08;;
5022;SDS011;2530;47.990;7.866;2023-05-18T11:47:33;3.03;;;2.65;;
5022;SDS011;2530;47.990;7.866;2023-05-18T11:50:00;4.25;;;3.10;;
5022;SDS011;2530;47.990;7.866;2023-05-18T11:52:26;4.95;;;2.97;;
5022;SDS011;2530;47.990;7.866;2023-05-18T11:54:54;3.05;;;2.45;;
5022;SDS011;2530;47.990;7.866;2023-05-18T11:57:25;3.78;;;2.70;;
5022;SDS011;2530;47.990;7.866;2023-05-18T12:00:04;4.63;;;2.88;;
5022;SDS011;2530;47.990;7.866;2023-05-18T12:02:35;4.53;;;2.80;;
5022;SDS011;2530;47.990;7.866;2023-05-18T12:05:01;3.30;;;2.50;;
5022;SDS011;2530;47.990;7.866;2023-05-18T12:07:32;3.42;;;2.85;;
5022;SDS011;2530;47.990;7.866;2023-05-18T12:10:00;5.70;;;3.38;;
5022;SDS011;2530;47.990;7.866;2023-05-18T12:12:27;5.38;;;3.13;;
5022;SDS011;2530;47.990;7.866;2023-05-18T12:14:57;5.20;;;2.75;;
5022;SDS011;2530;47.990;7.866;2023-05-18T12:17:40;4.15;;;2.97;;
5022;SDS011;2530;47.990;7.866;2023-05-18T12:20:08;5.45;;;3.20;;
5022;SDS011;2530;47.990;7.866;2023-05-18T12:22:35;5.10;;;2.90;;
5022;SDS011;2530;47.990;7.866;2023-05-18T12:25:02;3.83;;;2.80;;
5022;SDS011;2530;47.990;7.866;2023-05-18T12:27:27;4.90;;;3.20;;
5022;SDS011;2530;47.990;7.866;2023-05-18T12:29:53;4.00;;;3.20;;
5022;SDS011;2530;47.990;7.866;2023-05-18T12:32:18;4.22;;;3.25;;
5022;SDS011;2530;47.990;7.866;2023-05-18T12:34:44;4.17;;;2.80;;
5022;SDS011;2530;47.990;7.866;2023-05-18T12:37:10;4.18;;;2.60;;
5022;SDS011;2530;47.990;7.866;2023-05-18T12:39:35;4.30;;;2.93;;
5022;SDS011;2530;47.990;7.866;2023-05-18T12:42:08;3.63;;;2.80;;
5022;SDS011;2530;47.990;7.866;2023-05-18T12:44:35;4.07;;;3.42;;
5022;SDS011;2530;47.990;7.866;2023-05-18T12:47:01;4.10;;;3.40;;
5022;SDS011;2530;47.990;7.866;2023-05-18T12:49:27;4.30;;;2.78;;
5022;SDS011;2530;47.990;7.866;2023-05-18T12:51:53;5.00;;;3.20;;
5022;SDS011;2530;47.990;7.866;2023-05-18T12:54:26;3.08;;;2.75;;
5022;SDS011;2530;47.990;7.866;2023-05-18T12:56:53;5.93;;;3.17;;
5022;SDS011;2530;47.990;7.866;2023-05-18T12:59:25;3.95;;;2.90;;
5022;SDS011;2530;47.990;7.866;2023-05-18T13:01:52;3.20;;;2.90;;
5022;SDS011;2530;47.990;7.866;2023-05-18T13:04:18;5.40;;;3.17;;
5022;SDS011;2530;47.990;7.866;2023-05-18T13:06:44;4.78;;;3.30;;
5022;SDS011;2530;47.990;7.866;2023-05-18T13:09:13;5.67;;;3.10;;
5022;SDS011;2530;47.990;7.866;2023-05-18T13:11:40;5.20;;;3.00;;
5022;SDS011;2530;47.990;7.866;2023-05-18T13:14:11;4.30;;;2.95;;
5022;SDS011;2530;47.990;7.866;2023-05-18T13:16:37;5.28;;;3.30;;
5022;SDS011;2530;47.990;7.866;2023-05-18T13:19:08;4.93;;;2.95;;
5022;SDS011;2530;47.990;7.866;2023-05-18T13:21:35;4.60;;;3.00;;
5022;SDS011;2530;47.990;7.866;2023-05-18T13:24:01;5.78;;;3.45;;
5022;SDS011;2530;47.990;7.866;2023-05-18T13:26:27;7.50;;;3.10;;
5022;SDS011;2530;47.990;7.866;2023-05-18T13:28:54;3.50;;;3.10;;
5022;SDS011;2530;47.990;7.866;2023-05-18T13:31:20;6.10;;;3.30;;
5022;SDS011;2530;47.990;7.866;2023-05-18T13:33:46;4.60;;;3.00;;
5022;SDS011;2530;47.990;7.866;2023-05-18T13:36:12;3.50;;;3.10;;
5022;SDS011;2530;47.990;7.866;2023-05-18T13:38:38;3.90;;;3.30;;
5022;SDS011;2530;47.990;7.866;2023-05-18T13:41:05;3.80;;;2.80;;
5022;SDS011;2530;47.990;7.866;2023-05-18T13:43:31;4.05;;;3.10;;
5022;SDS011;2530;47.990;7.866;2023-05-18T13:45:57;3.40;;;3.10;;
5022;SDS011;2530;47.990;7.866;2023-05-18T13:48:23;4.07;;;3.03;;
5022;SDS011;2530;47.990;7.866;2023-05-18T13:50:51;3.20;;;2.50;;
5022;SDS011;2530;47.990;7.866;2023-05-18T13:53:17;4.57;;;3.10;;
5022;SDS011;2530;47.990;7.866;2023-05-18T13:55:42;4.70;;;3.33;;
5022;SDS011;2530;47.990;7.866;2023-05-18T13:58:08;3.70;;;3.30;;
5022;SDS011;2530;47.990;7.866;2023-05-18T14:00:33;4.80;;;3.30;;
5022;SDS011;2530;47.990;7.866;2023-05-18T14:03:00;4.45;;;3.30;;
5022;SDS011;2530;47.990;7.866;2023-05-18T14:05:26;5.00;;;3.50;;
5022;SDS011;2530;47.990;7.866;2023-05-18T14:07:52;4.22;;;3.40;;
5022;SDS011;2530;47.990;7.866;2023-05-18T14:10:17;4.13;;;2.93;;
5022;SDS011;2530;47.990;7.866;2023-05-18T14:12:43;6.70;;;3.40;;
5022;SDS011;2530;47.990;7.866;2023-05-18T14:15:09;4.45;;;3.10;;
5022;SDS011;2530;47.990;7.866;2023-05-18T14:17:35;3.58;;;2.88;;
5022;SDS011;2530;47.990;7.866;2023-05-18T14:20:01;4.43;;;3.23;;
5022;SDS011;2530;47.990;7.866;2023-05-18T14:22:29;4.22;;;3.10;;
5022;SDS011;2530;47.990;7.866;2023-05-18T14:24:55;3.20;;;2.90;;
5022;SDS011;2530;47.990;7.866;2023-05-18T14:27:20;4.97;;;3.15;;
5022;SDS011;2530;47.990;7.866;2023-05-18T14:29:46;4.90;;;2.90;;
5022;SDS011;2530;47.990;7.866;2023-05-18T14:32:13;4.47;;;3.08;;
5022;SDS011;2530;47.990;7.866;2023-05-18T14:34:38;5.20;;;3.10;;
5022;SDS011;2530;47.990;7.866;2023-05-18T14:37:04;5.35;;;3.10;;
5022;SDS011;2530;47.990;7.866;2023-05-18T14:39:29;4.20;;;3.30;;
5022;SDS011;2530;47.990;7.866;2023-05-18T14:41:55;5.55;;;2.88;;
5022;SDS011;2530;47.990;7.866;2023-05-18T14:44:20;3.90;;;3.40;;
5022;SDS011;2530;47.990;7.866;2023-05-18T14:46:46;4.40;;;3.20;;
5022;SDS011;2530;47.990;7.866;2023-05-18T14:49:11;4.57;;;2.60;;
5022;SDS011;2530;47.990;7.866;2023-05-18T14:51:37;4.80;;;2.80;;
5022;SDS011;2530;47.990;7.866;2023-05-18T14:54:03;5.33;;;2.80;;
5022;SDS011;2530;47.990;7.866;2023-05-18T14:56:29;3.50;;;3.03;;
5022;SDS011;2530;47.990;7.866;2023-05-18T14:59:06;4.30;;;2.90;;
5022;SDS011;2530;47.990;7.866;2023-05-18T15:01:31;3.57;;;2.70;;
5022;SDS011;2530;47.990;7.866;2023-05-18T15:03:57;4.20;;;3.13;;
5022;SDS011;2530;47.990;7.866;2023-05-18T15:06:23;4.30;;;3.10;;
5022;SDS011;2530;47.990;7.866;2023-05-18T15:08:49;5.57;;;3.10;;
5022;SDS011;2530;47.990;7.866;2023-05-18T15:11:15;5.10;;;2.90;;
5022;SDS011;2530;47.990;7.866;2023-05-18T15:13:40;3.40;;;2.87;;
5022;SDS011;2530;47.990;7.866;2023-05-18T15:16:06;4.97;;;3.17;;
5022;SDS011;2530;47.990;7.866;2023-05-18T15:18:32;5.40;;;3.10;;
5022;SDS011;2530;47.990;7.866;2023-05-18T15:20:57;3.65;;;2.88;;
5022;SDS011;2530;47.990;7.866;2023-05-18T15:23:23;4.40;;;2.80;;
5022;SDS011;2530;47.990;7.866;2023-05-18T15:25:50;5.00;;;2.85;;
5022;SDS011;2530;47.990;7.866;2023-05-18T15:28:15;3.80;;;3.10;;
5022;SDS011;2530;47.990;7.866;2023-05-18T15:30:41;3.83;;;2.63;;
5022;SDS011;2530;47.990;7.866;2023-05-18T15:33:06;4.00;;;2.90;;
5022;SDS011;2530;47.990;7.866;2023-05-18T15:35:32;4.10;;;2.90;;
5022;SDS011;2530;47.990;7.866;2023-05-18T15:38:00;7.15;;;2.80;;